This is the latest recevied weather packets stored in our database for station/object NN5DX-12. If no packets are shown the sender has not sent any weather packets the latest 10 day(s).
| Time | Temp. | Humidity | Pressure | Rain* | Wind** | Luminosity | Snow |
|---|---|---|---|---|---|---|---|
| 1778184618 | 11.67° C | 37% | 1024.4 hPa | 0.25 mm | - | - | - |
| 1778184318 | 12.22° C | 35% | 1024.4 hPa | 0.51 mm | - | - | - |
| 1778184018 | 12.22° C | 35% | 1024.4 hPa | 0.76 mm | - | - | - |
| 1778183717 | 12.78° C | 33% | 1024.9 hPa | 1.02 mm | - | - | - |
| 1778183417 | 12.78° C | 36% | 1024.4 hPa | 1.27 mm | - | - | - |
| 1778183118 | 12.22° C | 34% | 1024.3 hPa | 1.52 mm | - | - | - |
| 1778182818 | 12.78° C | 35% | 1024.6 hPa | 1.78 mm | - | - | - |
| 1778182517 | 12.78° C | 33% | 1024.5 hPa | 2.29 mm | - | - | - |
| 1778182218 | 13.33° C | 36% | 1024.7 hPa | 2.54 mm | - | - | - |
| 1778181918 | 13.33° C | 33% | 1025.2 hPa | 2.79 mm | - | - | - |
| 1778181617 | 13.33° C | 34% | 1025.5 hPa | 3.05 mm | - | - | - |
| 1778181318 | 13.33° C | 33% | 1025.3 hPa | 3.05 mm | - | - | - |
| 1778181018 | 13.89° C | 36% | 1025.7 hPa | 3.05 mm | - | - | - |
| 1778180717 | 13.89° C | 35% | 1025.6 hPa | 2.79 mm | - | - | - |
| 1778180418 | 13.33° C | 38% | 1025.8 hPa | 2.79 mm | - | - | - |
| 1778180118 | 13.33° C | 36% | 1025.1 hPa | 2.79 mm | - | - | - |
| 1778179816 | 12.78° C | 38% | 1025.1 hPa | 2.79 mm | - | - | - |
| 1778179518 | 12.22° C | 41% | 1025.1 hPa | 2.54 mm | - | - | - |
| 1778179217 | 11.67° C | 42% | 1024.6 hPa | 2.29 mm | - | - | - |
| 1778178918 | 12.22° C | 41% | 1024.7 hPa | 2.03 mm | - | - | - |
| 1778178617 | 12.22° C | 40% | 1025.4 hPa | 1.78 mm | - | - | - |
| 1778178318 | 11.67° C | 40% | 1025 hPa | 1.78 mm | - | - | - |
| 1778178018 | 12.22° C | 42% | 1025.5 hPa | 1.52 mm | - | - | - |
| 1778177717 | 11.67° C | 46% | 1025.1 hPa | 1.78 mm | - | - | - |
| 1778177418 | 10.56° C | 49% | 1024.4 hPa | 1.52 mm | - | - | - |
* Rain latest hour (hover to see other rain measurements)
** Current wind speed in m/s (hover to see current wind gust speed)